Time;durP1;ratioP1;P1;durP2;ratioP2;P2;SDS_P1;SDS_P2;PMS_P1;PMS_P2;Temp;Humidity;BMP_temperature;BMP_pressure;BME280_temperature;BME280_humidity;BME280_pressure;Samples;Min_cycle;Max_cycle;Signal;HPM_P1;HPM_P2
2021/06/14 00:00:53;;;;;;;8.93;6.65;;;16.90;78.10;;;;;;5073146;28;20035;-57
2021/06/14 00:03:37;;;;;;;11.73;7.28;;;16.90;77.20;;;;;;5074141;28;20407;-56
2021/06/14 00:06:21;;;;;;;10.18;7.00;;;16.80;77.70;;;;;;5070579;28;20028;-53
2021/06/14 00:09:06;;;;;;;12.48;7.60;;;16.80;77.90;;;;;;5072886;28;20081;-57
2021/06/14 00:11:51;;;;;;;10.63;7.30;;;16.80;77.80;;;;;;5070713;28;20019;-53
2021/06/14 00:14:36;;;;;;;11.32;6.95;;;16.70;77.80;;;;;;5071914;28;20027;-53
2021/06/14 00:17:20;;;;;;;13.32;7.18;;;16.60;78.00;;;;;;5070169;28;20040;-54
2021/06/14 00:20:08;;;;;;;11.90;7.10;;;16.60;78.30;;;;;;5075199;28;20043;-56
2021/06/14 00:22:53;;;;;;;17.13;10.60;;;16.60;78.70;;;;;;5072928;28;20051;-54
2021/06/14 00:25:38;;;;;;;10.90;8.73;;;16.60;80.20;;;;;;5073043;28;20063;-51
2021/06/14 00:28:24;;;;;;;18.02;10.05;;;16.60;79.90;;;;;;5069677;28;20640;-63
2021/06/14 00:31:10;;;;;;;11.93;7.82;;;16.50;79.60;;;;;;5074738;28;20456;-56
2021/06/14 00:33:55;;;;;;;12.20;7.65;;;16.50;79.30;;;;;;5056906;28;20069;-57
2021/06/14 00:36:39;;;;;;;14.05;8.15;;;16.40;79.50;;;;;;5076656;28;20499;-55
2021/06/14 00:39:23;;;;;;;14.18;8.38;;;16.50;79.60;;;;;;5074632;28;20031;-55
2021/06/14 00:42:07;;;;;;;12.32;7.72;;;16.40;79.90;;;;;;5076564;28;20059;-54
2021/06/14 00:44:51;;;;;;;13.88;7.75;;;16.30;79.40;;;;;;5073867;28;20036;-53
2021/06/14 00:47:36;;;;;;;18.48;9.02;;;16.20;78.90;;;;;;5076344;28;20074;-53
2021/06/14 00:50:31;;;;;;;16.17;8.32;;;16.10;79.10;;;;;;5073470;28;20146;-54
2021/06/14 00:53:37;;;;;;;12.88;8.18;;;16.10;79.40;;;;;;5073587;28;20059;-51
2021/06/14 00:56:21;;;;;;;;;;;16.20;79.00;;;;;;5075870;28;20022;-55
2021/06/14 00:59:06;;;;;;;17.90;7.60;;;16.30;78.70;;;;;;5075826;28;19915;-55
2021/06/14 01:01:50;;;;;;;10.23;6.82;;;16.30;78.70;;;;;;5075026;28;20090;-55
2021/06/14 01:04:34;;;;;;;11.60;7.40;;;16.40;79.10;;;;;;5073361;28;20089;-53
2021/06/14 01:07:18;;;;;;;15.50;7.63;;;16.30;79.30;;;;;;5072996;28;20290;-53
2021/06/14 01:10:04;;;;;;;;;;;16.20;79.20;;;;;;5076668;28;20121;-58
2021/06/14 01:13:07;;;;;;;12.02;7.15;;;16.30;79.80;;;;;;5073326;28;19915;-56
2021/06/14 01:16:29;;;;;;;12.73;7.25;;;16.30;80.60;;;;;;5075147;28;20028;-56
2021/06/14 01:19:51;;;;;;;12.00;7.43;;;16.30;80.10;;;;;;5073207;28;20030;-58
2021/06/14 01:23:13;;;;;;;10.10;6.35;;;16.20;80.10;;;;;;5073228;28;20499;-57
2021/06/14 01:26:12;;;;;;;13.95;6.80;;;16.10;80.40;;;;;;5074067;28;20406;-56
2021/06/14 01:28:59;;;;;;;8.98;6.63;;;16.00;80.70;;;;;;5072692;28;20028;-57
2021/06/14 01:31:45;;;;;;;10.50;6.88;;;16.00;81.00;;;;;;5075460;28;20407;-62
2021/06/14 01:34:33;;;;;;;11.80;6.70;;;16.00;81.20;;;;;;5058094;28;20091;-58
2021/06/14 01:37:18;;;;;;;11.60;7.43;;;15.90;81.00;;;;;;5072561;28;20105;-58
2021/06/14 01:40:04;;;;;;;13.40;7.65;;;15.80;80.60;;;;;;5073008;28;20051;-56
2021/06/14 01:42:51;;;;;;;9.93;6.80;;;15.80;80.70;;;;;;5075507;28;20104;-57
2021/06/14 01:45:41;;;;;;;10.35;6.75;;;15.70;80.40;;;;;;5073387;28;20079;-59
2021/06/14 01:48:27;;;;;;;8.63;6.70;;;15.70;80.40;;;;;;5074157;28;20059;-56
2021/06/14 01:51:14;;;;;;;8.77;6.25;;;15.70;80.40;;;;;;5074774;28;20027;-56
2021/06/14 01:54:02;;;;;;;10.27;6.60;;;15.70;80.20;;;;;;5072853;28;20549;-58
2021/06/14 01:56:51;;;;;;;10.85;6.57;;;15.70;80.00;;;;;;5075137;28;20119;-58
2021/06/14 01:59:38;;;;;;;10.38;6.65;;;15.70;80.50;;;;;;5075174;28;20407;-55
2021/06/14 02:02:22;;;;;;;9.63;6.07;;;15.70;81.30;;;;;;5075132;28;20023;-55
2021/06/14 02:05:07;;;;;;;15.82;13.70;;;15.80;82.30;;;;;;5072144;28;20031;-55
2021/06/14 02:07:52;;;;;;;19.67;15.38;;;15.80;83.20;;;;;;5071799;28;20134;-53
2021/06/14 02:10:38;;;;;;;17.10;12.32;;;15.70;84.00;;;;;;5072140;28;20032;-53
2021/06/14 02:13:24;;;;;;;14.40;9.15;;;15.70;83.90;;;;;;5074961;28;20415;-59
2021/06/14 02:16:09;;;;;;;10.18;7.82;;;15.70;83.90;;;;;;5071842;28;20090;-56
2021/06/14 02:18:54;;;;;;;9.93;8.00;;;15.60;83.30;;;;;;5071498;28;20086;-55
2021/06/14 02:21:40;;;;;;;11.60;7.03;;;15.60;83.30;;;;;;5072073;28;20071;-60
2021/06/14 02:24:24;;;;;;;9.07;6.75;;;15.50;82.90;;;;;;5074396;28;20116;-59
2021/06/14 02:27:12;;;;;;;11.48;6.00;;;15.40;82.70;;;;;;5071185;28;20077;-56
2021/06/14 02:29:56;;;;;;;8.82;6.55;;;15.40;83.20;;;;;;5071791;28;20089;-55
2021/06/14 02:32:41;;;;;;;11.25;7.43;;;15.40;83.70;;;;;;5072145;28;20105;-59
2021/06/14 02:35:26;;;;;;;12.55;6.95;;;15.30;83.70;;;;;;5072620;28;20043;-56
2021/06/14 02:38:11;;;;;;;;;;;15.20;84.00;;;;;;5072925;28;20093;-57
2021/06/14 02:40:56;;;;;;;12.80;7.18;;;15.10;84.30;;;;;;5065076;28;19912;-59
2021/06/14 02:43:41;;;;;;;10.25;7.25;;;15.10;84.40;;;;;;5072551;28;20106;-54
2021/06/14 02:46:26;;;;;;;10.05;6.85;;;15.00;84.70;;;;;;5072925;28;20112;-55
2021/06/14 02:49:13;;;;;;;9.20;7.28;;;15.00;84.90;;;;;;5074857;28;20054;-54
2021/06/14 02:51:59;;;;;;;11.48;7.13;;;15.00;85.30;;;;;;5086736;28;20105;-58
2021/06/14 02:54:52;;;;;;;11.40;6.82;;;15.00;85.20;;;;;;5077706;28;20069;-57
2021/06/14 02:57:37;;;;;;;10.85;6.82;;;15.10;85.30;;;;;;5070626;28;20392;-55
2021/06/14 03:00:23;;;;;;;11.65;7.30;;;15.10;85.70;;;;;;5071146;28;20081;-56
2021/06/14 03:03:08;;;;;;;10.57;6.75;;;15.20;85.90;;;;;;5072175;28;20080;-59
2021/06/14 03:05:53;;;;;;;9.38;7.05;;;15.20;85.70;;;;;;5071930;28;20039;-55
2021/06/14 03:08:38;;;;;;;10.07;7.45;;;15.20;85.10;;;;;;5071341;28;20039;-57
2021/06/14 03:11:25;;;;;;;10.68;6.95;;;15.20;84.70;;;;;;5071935;28;20105;-56
2021/06/14 03:14:15;;;;;;;10.38;7.93;;;15.20;85.30;;;;;;5071792;28;20075;-59
2021/06/14 03:16:59;;;;;;;34.20;21.02;;;15.20;85.60;;;;;;5071371;28;20044;-56
2021/06/14 03:19:46;;;;;;;21.30;13.63;;;15.30;85.80;;;;;;5071494;28;20120;-55
2021/06/14 03:22:30;;;;;;;12.43;8.98;;;15.30;86.10;;;;;;5071608;28;20064;-57
2021/06/14 03:25:15;;;;;;;12.40;8.40;;;15.20;85.80;;;;;;5082328;28;20050;-57
2021/06/14 03:28:02;;;;;;;10.20;7.90;;;15.20;86.00;;;;;;5075810;28;20039;-55
2021/06/14 03:30:49;;;;;;;11.80;8.65;;;15.30;86.00;;;;;;5071727;28;20035;-58
2021/06/14 03:33:34;;;;;;;11.95;8.48;;;15.30;85.80;;;;;;5056588;28;20031;-55
2021/06/14 03:36:20;;;;;;;12.02;8.27;;;15.40;85.30;;;;;;5071678;28;20067;-52
2021/06/14 03:39:04;;;;;;;8.65;7.20;;;15.40;85.00;;;;;;5056027;28;20075;-60
2021/06/14 03:41:50;;;;;;;11.43;7.80;;;15.50;84.90;;;;;;5071657;28;20558;-54
2021/06/14 03:44:36;;;;;;;10.95;7.55;;;15.50;84.70;;;;;;5071424;28;20431;-56
2021/06/14 03:47:20;;;;;;;11.00;7.45;;;15.50;84.60;;;;;;5071248;28;20085;-59
2021/06/14 03:50:06;;;;;;;11.35;7.85;;;15.50;84.20;;;;;;5056209;28;20499;-59
2021/06/14 03:52:50;;;;;;;12.00;7.80;;;15.50;84.20;;;;;;5088317;28;20051;-57
2021/06/14 03:55:35;;;;;;;;;;;15.40;84.50;;;;;;5091835;28;20415;-57
2021/06/14 03:58:19;;;;;;;12.45;8.05;;;15.40;84.60;;;;;;5091210;28;19911;-55
2021/06/14 04:01:04;;;;;;;11.63;7.57;;;15.50;83.60;;;;;;5091642;28;20089;-53
2021/06/14 04:04:11;;;;;;;10.27;7.20;;;15.50;84.40;;;;;;5091628;28;20043;-56
2021/06/14 04:06:55;;;;;;;10.48;7.15;;;15.40;84.80;;;;;;5066211;28;20027;-59
2021/06/14 04:09:39;;;;;;;11.55;7.53;;;15.50;84.80;;;;;;5073101;28;20036;-57
2021/06/14 04:12:23;;;;;;;11.00;7.33;;;15.50;84.30;;;;;;5057833;28;20032;-56
2021/06/14 04:15:08;;;;;;;12.38;7.55;;;15.60;82.90;;;;;;5075066;28;20081;-55
2021/06/14 04:17:52;;;;;;;9.95;7.43;;;15.60;83.00;;;;;;5045630;28;20071;-53
2021/06/14 04:20:37;;;;;;;12.87;7.60;;;15.70;83.50;;;;;;5058763;28;20105;-55
2021/06/14 04:23:21;;;;;;;11.13;7.47;;;15.50;84.30;;;;;;5075012;28;20550;-53
2021/06/14 04:26:06;;;;;;;9.57;6.95;;;15.30;85.20;;;;;;5087006;28;20125;-53
2021/06/14 04:28:50;;;;;;;7.78;6.97;;;15.30;85.50;;;;;;5087271;28;20526;-56
2021/06/14 04:31:34;;;;;;;9.77;7.77;;;15.30;86.10;;;;;;5074332;28;20085;-53
2021/06/14 04:34:19;;;;;;;8.23;7.30;;;15.40;86.70;;;;;;5074885;28;20047;-54
2021/06/14 04:37:04;;;;;;;8.60;7.15;;;15.40;87.40;;;;;;5059540;28;20079;-58
2021/06/14 04:39:49;;;;;;;16.80;13.25;;;15.40;88.00;;;;;;5073996;28;20094;-58
2021/06/14 04:42:35;;;;;;;12.25;8.80;;;15.50;88.10;;;;;;5073982;28;20561;-60
2021/06/14 04:45:19;;;;;;;11.13;7.50;;;15.50;87.80;;;;;;5074699;28;20031;-57
2021/06/14 04:48:04;;;;;;;11.60;7.85;;;15.60;87.00;;;;;;5074068;28;20661;-60
2021/06/14 04:50:49;;;;;;;15.35;7.97;;;15.60;86.80;;;;;;5074632;28;20040;-55
2021/06/14 04:53:33;;;;;;;10.23;7.05;;;15.70;86.20;;;;;;5074375;28;20407;-55
2021/06/14 04:56:18;;;;;;;8.75;7.40;;;15.70;85.70;;;;;;5086290;28;20089;-55
2021/06/14 04:59:02;;;;;;;11.02;7.45;;;15.80;85.50;;;;;;5094267;28;20074;-56
2021/06/14 05:01:46;;;;;;;11.13;8.23;;;15.70;85.60;;;;;;5094073;28;20062;-57
2021/06/14 05:04:31;;;;;;;12.85;8.50;;;15.80;85.60;;;;;;5094370;28;20653;-59
2021/06/14 05:07:15;;;;;;;11.45;8.15;;;15.80;85.50;;;;;;5094110;28;20055;-57
2021/06/14 05:10:00;;;;;;;13.23;7.90;;;15.80;85.50;;;;;;5079375;28;20457;-56
2021/06/14 05:12:44;;;;;;;12.43;7.72;;;15.90;85.60;;;;;;5094403;28;20435;-62
2021/06/14 05:15:32;;;;;;;14.23;8.70;;;16.00;85.40;;;;;;5079139;28;20067;-60
2021/06/14 05:18:16;;;;;;;13.48;8.40;;;16.10;85.00;;;;;;5093934;28;20534;-58
2021/06/14 05:21:00;;;;;;;10.45;7.68;;;16.10;84.10;;;;;;5094404;28;20085;-56
2021/06/14 05:23:45;;;;;;;9.98;7.65;;;16.10;83.80;;;;;;5093282;28;20173;-55
2021/06/14 05:26:29;;;;;;;12.15;7.28;;;16.30;83.60;;;;;;5093800;28;20494;-54
2021/06/14 05:29:13;;;;;;;14.50;7.83;;;16.40;83.10;;;;;;5085935;28;20039;-55
2021/06/14 05:31:57;;;;;;;11.98;7.80;;;16.50;82.60;;;;;;5093853;28;20342;-57
2021/06/14 05:34:42;;;;;;;12.50;8.60;;;16.60;82.20;;;;;;5093730;28;20047;-56
2021/06/14 05:37:26;;;;;;;11.27;7.10;;;16.60;82.20;;;;;;5093535;28;20062;-56
2021/06/14 05:40:10;;;;;;;12.60;7.45;;;16.60;82.00;;;;;;5093424;28;20038;-55
2021/06/14 05:42:55;;;;;;;13.82;8.25;;;16.80;81.80;;;;;;5093715;28;20035;-53
2021/06/14 05:45:39;;;;;;;13.30;8.23;;;16.90;81.50;;;;;;5093992;28;20032;-57
2021/06/14 05:48:24;;;;;;;15.27;8.68;;;16.90;81.30;;;;;;5093023;28;20293;-58
2021/06/14 05:51:08;;;;;;;14.73;7.93;;;17.00;80.90;;;;;;5093261;28;20051;-60
2021/06/14 05:53:52;;;;;;;15.05;9.05;;;17.00;80.80;;;;;;5093806;28;20119;-59
2021/06/14 05:56:36;;;;;;;11.37;7.87;;;17.00;80.10;;;;;;5093419;28;20042;-61
2021/06/14 05:59:20;;;;;;;13.98;7.90;;;16.80;82.10;;;;;;5093431;28;20403;-60
2021/06/14 06:02:06;;;;;;;19.95;9.02;;;16.90;81.10;;;;;;5093647;28;20035;-55
2021/06/14 06:04:50;;;;;;;15.30;9.85;;;17.00;81.60;;;;;;5093389;28;20563;-59
2021/06/14 06:07:36;;;;;;;15.48;8.90;;;16.90;82.50;;;;;;5092852;28;20120;-59
2021/06/14 06:10:20;;;;;;;13.18;8.00;;;16.90;82.70;;;;;;5093204;28;20096;-59
2021/06/14 06:13:04;;;;;;;13.40;8.38;;;17.00;82.80;;;;;;5093385;28;20093;-60
2021/06/14 06:15:48;;;;;;;18.25;9.45;;;17.10;82.50;;;;;;5093162;28;20129;-60
2021/06/14 06:18:32;;;;;;;15.07;8.48;;;17.30;82.10;;;;;;5093015;28;20043;-58
2021/06/14 06:21:16;;;;;;;13.57;7.82;;;17.30;82.40;;;;;;5098454;28;20047;-57
2021/06/14 06:24:01;;;;;;;13.13;7.63;;;17.30;81.90;;;;;;5113217;28;20081;-60
2021/06/14 06:26:45;;;;;;;14.43;8.05;;;17.30;82.20;;;;;;5092429;28;20035;-55
2021/06/14 06:29:29;;;;;;;16.80;8.15;;;17.30;82.20;;;;;;5085183;28;20098;-59
2021/06/14 06:32:13;;;;;;;12.57;8.25;;;17.20;83.00;;;;;;5080675;28;20101;-60
2021/06/14 06:34:57;;;;;;;14.43;8.30;;;17.20;83.00;;;;;;5071630;28;20070;-59
2021/06/14 06:37:41;;;;;;;10.98;7.13;;;17.50;82.00;;;;;;5081005;28;20039;-58
2021/06/14 06:40:25;;;;;;;11.05;7.15;;;17.70;80.70;;;;;;5085477;28;20047;-60
2021/06/14 06:43:09;;;;;;;11.93;7.28;;;17.90;80.20;;;;;;5092266;28;20415;-58
2021/06/14 06:45:53;;;;;;;16.15;7.80;;;18.00;78.60;;;;;;5072367;28;20043;-58
2021/06/14 06:48:38;;;;;;;13.30;7.55;;;18.10;78.60;;;;;;5071756;28;20514;-60
2021/06/14 06:51:22;;;;;;;10.00;7.35;;;18.10;78.90;;;;;;5077028;28;20560;-56
2021/06/14 06:54:12;;;;;;;12.57;7.57;;;18.30;78.50;;;;;;5072292;28;20089;-59
2021/06/14 06:56:56;;;;;;;14.75;6.85;;;18.40;77.90;;;;;;5075123;28;20035;-61
2021/06/14 06:59:41;;;;;;;13.88;7.50;;;18.50;76.10;;;;;;5092050;28;20390;-58
2021/06/14 07:02:25;;;;;;;11.02;6.93;;;18.60;76.10;;;;;;5092209;28;20440;-57
2021/06/14 07:05:10;;;;;;;;;;;18.60;74.80;;;;;;5092559;28;20086;-61
2021/06/14 07:07:54;;;;;;;11.73;6.30;;;18.50;74.30;;;;;;5091805;28;19961;-54
2021/06/14 07:10:39;;;;;;;11.80;6.40;;;18.60;73.90;;;;;;5076016;28;20038;-60
2021/06/14 07:13:23;;;;;;;13.55;6.95;;;18.70;74.00;;;;;;5071991;28;20105;-56
2021/06/14 07:16:07;;;;;;;16.38;7.10;;;19.00;73.80;;;;;;5071843;28;20039;-57
2021/06/14 07:18:52;;;;;;;13.63;6.53;;;18.90;73.80;;;;;;5071562;28;20039;-56
2021/06/14 07:21:37;;;;;;;10.52;6.85;;;19.00;73.90;;;;;;5072066;28;20468;-57
2021/06/14 07:24:21;;;;;;;13.00;8.18;;;19.20;73.80;;;;;;5057104;28;20388;-56
2021/06/14 07:27:05;;;;;;;9.98;7.13;;;19.20;74.30;;;;;;5071868;28;20067;-55
2021/06/14 07:29:49;;;;;;;13.90;7.18;;;19.10;74.50;;;;;;5079175;28;20031;-56
2021/06/14 07:32:33;;;;;;;11.52;7.00;;;19.00;74.30;;;;;;5085161;28;20137;-55
2021/06/14 07:35:18;;;;;;;15.23;7.43;;;19.10;74.00;;;;;;5091579;28;20084;-58
2021/06/14 07:38:03;;;;;;;12.77;7.07;;;19.20;73.90;;;;;;5071430;28;20051;-54
2021/06/14 07:40:47;;;;;;;9.00;6.53;;;19.00;73.00;;;;;;5086893;28;20039;-58
2021/06/14 07:43:31;;;;;;;;;;;19.10;73.40;;;;;;5106794;28;20074;-55
2021/06/14 07:46:16;;;;;;;14.98;6.82;;;19.20;73.40;;;;;;5091944;28;19911;-56
2021/06/14 07:49:01;;;;;;;;;;;19.40;73.10;;;;;;5095795;28;20113;-57
2021/06/14 07:51:45;;;;;;;12.75;6.55;;;19.40;72.80;;;;;;5088086;28;20425;-59
2021/06/14 07:54:29;;;;;;;12.10;6.70;;;19.20;73.30;;;;;;5075112;28;20507;-59
2021/06/14 07:57:13;;;;;;;14.00;7.10;;;19.30;72.90;;;;;;5095357;28;20360;-58
2021/06/14 07:59:58;;;;;;;13.10;6.80;;;19.20;72.30;;;;;;5095666;28;20047;-57
2021/06/14 08:02:42;;;;;;;11.65;6.30;;;19.50;71.60;;;;;;5095340;28;20047;-57
2021/06/14 08:05:26;;;;;;;11.02;6.55;;;19.70;70.90;;;;;;5095740;28;20047;-55
2021/06/14 08:08:12;;;;;;;14.75;6.55;;;19.90;70.40;;;;;;5095050;28;20565;-58
2021/06/14 08:10:56;;;;;;;9.98;6.75;;;19.90;71.20;;;;;;5095693;28;20035;-56
2021/06/14 08:13:42;;;;;;;12.10;6.95;;;20.00;70.20;;;;;;5095570;28;20088;-56
2021/06/14 08:16:27;;;;;;;15.35;7.03;;;20.20;69.80;;;;;;5095317;28;20039;-57
2021/06/14 08:19:48;;;;;;;12.52;6.15;;;20.30;68.90;;;;;;5095124;28;20067;-55
2021/06/14 08:22:35;;;;;;;12.25;7.35;;;20.20;68.50;;;;;;5095270;28;20082;-60
2021/06/14 08:25:19;;;;;;;6.90;5.32;;;20.10;69.50;;;;;;5095440;28;20022;-61
2021/06/14 08:28:04;;;;;;;14.05;6.50;;;20.10;68.00;;;;;;5094041;28;20042;-58
2021/06/14 08:30:49;;;;;;;8.65;5.68;;;20.30;67.90;;;;;;5090792;28;20130;-57
2021/06/14 08:33:33;;;;;;;11.98;6.75;;;20.50;67.60;;;;;;5074905;28;20035;-55
2021/06/14 08:36:18;;;;;;;;;;;20.50;67.10;;;;;;5084135;28;20039;-59
2021/06/14 08:39:04;;;;;;;12.45;6.03;;;20.60;65.70;;;;;;5094594;28;19957;-55
2021/06/14 08:41:49;;;;;;;10.38;5.97;;;20.40;67.10;;;;;;5095082;28;20399;-57
2021/06/14 08:44:34;;;;;;;10.65;5.93;;;20.30;65.70;;;;;;5094817;28;20066;-54
2021/06/14 08:47:22;;;;;;;12.75;6.03;;;20.30;64.10;;;;;;5094593;28;20100;-60
2021/06/14 08:50:08;;;;;;;10.15;5.90;;;20.50;64.40;;;;;;5079462;28;20154;-58
2021/06/14 08:52:53;;;;;;;13.20;6.57;;;20.70;64.60;;;;;;5077459;28;20044;-57
2021/06/14 08:55:38;;;;;;;10.00;5.80;;;20.90;63.90;;;;;;5081293;28;20426;-60
2021/06/14 08:58:22;;;;;;;;;;;20.90;63.50;;;;;;5079212;28;20115;-59
2021/06/14 09:01:06;;;;;;;7.63;5.53;;;20.70;64.10;;;;;;5094782;28;20003;-57
2021/06/14 09:03:51;;;;;;;7.88;5.43;;;20.70;63.60;;;;;;5094651;28;20391;-56
2021/06/14 09:06:35;;;;;;;;;;;20.80;62.70;;;;;;5094873;28;20449;-55
2021/06/14 09:09:19;;;;;;;12.82;5.80;;;20.90;61.00;;;;;;5094171;28;19915;-57
2021/06/14 09:12:05;;;;;;;10.10;5.13;;;20.70;62.30;;;;;;5094688;28;20035;-56
2021/06/14 09:14:49;;;;;;;8.10;5.35;;;20.90;62.00;;;;;;5094267;28;20116;-58
2021/06/14 09:17:33;;;;;;;9.25;5.35;;;21.00;59.30;;;;;;5094231;28;20126;-59
2021/06/14 09:20:17;;;;;;;9.20;4.97;;;21.20;57.40;;;;;;5094353;28;20044;-54
2021/06/14 09:23:07;;;;;;;7.25;4.97;;;21.50;58.20;;;;;;5094264;28;20119;-58
2021/06/14 09:25:52;;;;;;;8.43;5.18;;;21.50;58.60;;;;;;5094108;28;20082;-56
2021/06/14 09:29:15;;;;;;;9.98;6.03;;;21.40;58.70;;;;;;5088169;28;20043;-59
2021/06/14 09:32:03;;;;;;;8.20;5.13;;;21.40;60.90;;;;;;5070945;28;20035;-58
2021/06/14 09:34:52;;;;;;;9.18;5.57;;;21.80;60.70;;;;;;5094396;28;20074;-54
2021/06/14 09:37:37;;;;;;;12.25;6.55;;;21.70;60.20;;;;;;5073661;28;20522;-59
2021/06/14 09:40:29;;;;;;;10.75;5.28;;;21.90;60.70;;;;;;5074017;28;20507;-55
2021/06/14 09:43:26;;;;;;;9.20;5.32;;;22.10;59.20;;;;;;5076878;28;20051;-55
2021/06/14 09:46:28;;;;;;;10.68;5.68;;;22.30;58.10;;;;;;5093717;28;20088;-58
2021/06/14 09:49:18;;;;;;;8.20;5.05;;;22.20;58.10;;;;;;5093118;28;20108;-57
2021/06/14 09:52:07;;;;;;;15.60;5.15;;;22.30;58.10;;;;;;5083407;28;20089;-57
2021/06/14 09:54:51;;;;;;;10.23;6.63;;;22.30;58.30;;;;;;5073461;28;20078;-58
2021/06/14 09:57:35;;;;;;;;;;;22.10;59.00;;;;;;5093862;28;20043;-55
2021/06/14 10:00:21;;;;;;;9.60;7.15;;;22.20;59.30;;;;;;5093655;28;19915;-58
2021/06/14 10:03:05;;;;;;;8.70;5.85;;;22.30;59.00;;;;;;5096177;28;20039;-59
2021/06/14 10:05:53;;;;;;;10.07;5.13;;;22.40;58.70;;;;;;5093422;28;20051;-55
2021/06/14 10:08:38;;;;;;;6.90;5.07;;;22.50;58.10;;;;;;5092911;28;20035;-50
2021/06/14 10:11:22;;;;;;;10.05;5.50;;;22.50;58.20;;;;;;5072627;28;20063;-57
2021/06/14 10:14:18;;;;;;;9.55;5.32;;;22.40;57.20;;;;;;5073267;28;20038;-53
2021/06/14 10:17:04;;;;;;;8.50;4.60;;;22.40;57.60;;;;;;5072590;28;20113;-56
2021/06/14 10:19:48;;;;;;;10.70;4.97;;;22.50;57.30;;;;;;5072864;28;20034;-57
2021/06/14 10:22:32;;;;;;;9.02;4.82;;;22.70;56.60;;;;;;5073823;28;20043;-59
2021/06/14 10:25:18;;;;;;;8.30;5.30;;;22.70;56.70;;;;;;5087597;28;20564;-58
2021/06/14 10:28:04;;;;;;;7.57;4.72;;;22.90;56.70;;;;;;5091961;28;20043;-58
2021/06/14 10:30:48;;;;;;;13.90;5.75;;;23.10;56.50;;;;;;5088688;28;20576;-59
2021/06/14 10:33:32;;;;;;;10.60;5.32;;;23.30;55.50;;;;;;5073397;28;20058;-60
2021/06/14 10:36:21;;;;;;;7.40;4.68;;;23.30;56.40;;;;;;5080595;28;20027;-58
2021/06/14 10:39:05;;;;;;;7.53;4.53;;;23.50;56.50;;;;;;5072255;28;20518;-60
2021/06/14 10:41:49;;;;;;;;;;;23.60;56.00;;;;;;5077210;28;20048;-57
2021/06/14 10:44:33;;;;;;;7.93;4.95;;;23.60;54.40;;;;;;5093147;28;20350;-61
2021/06/14 10:47:19;;;;;;;9.10;4.50;;;23.30;55.20;;;;;;5081116;28;20082;-57
2021/06/14 10:50:04;;;;;;;9.40;5.07;;;23.10;55.30;;;;;;5072720;28;20028;-55
2021/06/14 10:52:48;;;;;;;9.48;4.70;;;23.20;55.40;;;;;;5072778;28;20097;-55
2021/06/14 10:55:35;;;;;;;6.60;4.20;;;23.30;55.30;;;;;;5078427;28;20035;-58
2021/06/14 10:58:21;;;;;;;7.70;5.03;;;23.30;55.10;;;;;;5092309;28;20513;-55
2021/06/14 11:01:15;;;;;;;8.40;4.38;;;23.00;55.20;;;;;;5092999;28;20043;-57
2021/06/14 11:04:01;;;;;;;6.43;4.40;;;22.90;55.30;;;;;;5088294;28;20391;-56
2021/06/14 11:06:53;;;;;;;8.40;4.18;;;22.80;56.10;;;;;;5076330;28;20089;-60
2021/06/14 11:09:42;;;;;;;8.40;4.47;;;23.00;55.90;;;;;;5078392;28;20034;-57
2021/06/14 11:12:31;;;;;;;5.97;4.32;;;23.10;55.10;;;;;;5103769;28;20115;-57
2021/06/14 11:15:16;;;;;;;9.02;4.80;;;23.10;55.20;;;;;;5092894;28;20624;-58
2021/06/14 11:18:06;;;;;;;7.43;4.43;;;23.10;55.20;;;;;;5103806;28;20034;-60
2021/06/14 11:21:11;;;;;;;6.13;4.20;;;23.00;55.20;;;;;;5112582;28;20071;-58
2021/06/14 11:24:11;;;;;;;8.82;4.85;;;23.10;55.50;;;;;;5057085;28;20078;-59
2021/06/14 11:26:57;;;;;;;6.28;4.45;;;23.20;55.30;;;;;;5090931;28;20093;-55
2021/06/14 11:29:49;;;;;;;5.88;4.50;;;23.40;55.10;;;;;;5085878;28;20044;-56
2021/06/14 11:32:38;;;;;;;7.22;4.30;;;23.60;54.90;;;;;;5070800;28;20027;-60
2021/06/14 11:35:23;;;;;;;7.97;4.65;;;23.70;55.50;;;;;;5091255;28;20036;-57
2021/06/14 11:38:18;;;;;;;8.40;4.65;;;23.70;55.40;;;;;;5056667;28;20043;-57
2021/06/14 11:41:03;;;;;;;7.53;4.50;;;23.60;55.80;;;;;;5072112;28;20032;-57
2021/06/14 11:43:47;;;;;;;9.00;4.55;;;23.60;55.90;;;;;;5057326;28;20094;-57
2021/06/14 11:46:41;;;;;;;8.60;4.70;;;23.80;55.80;;;;;;5072076;28;20142;-56
2021/06/14 11:49:35;;;;;;;8.13;4.55;;;23.90;55.80;;;;;;5071620;28;20039;-59
2021/06/14 11:52:21;;;;;;;;;;;23.80;56.20;;;;;;5072350;28;20032;-59
2021/06/14 11:55:08;;;;;;;10.95;5.15;;;23.90;57.00;;;;;;5074067;28;19999;-56
2021/06/14 11:57:58;;;;;;;8.15;5.40;;;23.80;56.90;;;;;;5076490;28;20112;-56
2021/06/14 12:00:45;;;;;;;7.38;5.18;;;24.00;56.80;;;;;;5092009;28;20039;-57
2021/06/14 12:03:29;;;;;;;6.13;4.20;;;24.10;56.20;;;;;;5094448;28;20050;-56
2021/06/14 12:06:13;;;;;;;9.32;5.30;;;24.20;56.40;;;;;;5072054;28;20094;-56
2021/06/14 12:09:12;;;;;;;10.20;5.88;;;24.30;56.40;;;;;;5056055;28;20074;-58
2021/06/14 12:11:57;;;;;;;9.27;4.85;;;24.30;56.70;;;;;;5071986;28;20032;-54
2021/06/14 12:14:50;;;;;;;7.43;4.45;;;24.40;56.40;;;;;;5056728;28;20519;-55
2021/06/14 12:17:37;;;;;;;12.65;5.47;;;24.20;56.20;;;;;;5071316;28;20044;-59
2021/06/14 12:20:25;;;;;;;8.93;4.70;;;24.10;56.00;;;;;;5071619;28;20031;-58
2021/06/14 12:23:12;;;;;;;9.20;4.93;;;24.20;57.30;;;;;;5080550;28;20119;-57
2021/06/14 12:25:57;;;;;;;6.68;4.40;;;24.40;56.20;;;;;;5086367;28;20114;-59
2021/06/14 12:28:42;;;;;;;5.95;4.45;;;24.60;55.70;;;;;;5059442;28;20369;-56
2021/06/14 12:31:26;;;;;;;7.55;4.30;;;24.60;55.60;;;;;;5084234;28;20096;-56
2021/06/14 12:34:10;;;;;;;7.40;4.53;;;24.80;55.30;;;;;;5096922;28;20054;-57
2021/06/14 12:37:07;;;;;;;8.98;4.20;;;25.20;55.00;;;;;;5097316;28;20093;-59
2021/06/14 12:40:05;;;;;;;6.72;4.47;;;25.00;54.60;;;;;;5096093;28;20032;-56
2021/06/14 12:43:01;;;;;;;7.30;4.93;;;25.10;54.80;;;;;;5095993;28;20031;-60
2021/06/14 12:45:46;;;;;;;8.60;6.20;;;25.00;54.90;;;;;;5095670;28;20043;-56
2021/06/14 12:48:30;;;;;;;6.97;4.78;;;25.10;55.70;;;;;;5094662;28;20088;-56
2021/06/14 12:51:14;;;;;;;7.50;4.53;;;25.30;55.60;;;;;;5095116;28;20129;-57
2021/06/14 12:53:58;;;;;;;8.45;4.47;;;25.60;55.00;;;;;;5080165;28;20419;-58
2021/06/14 12:56:51;;;;;;;7.22;4.10;;;25.60;54.80;;;;;;5070731;28;20062;-57
2021/06/14 12:59:35;;;;;;;7.45;4.65;;;25.80;55.10;;;;;;5092682;28;20450;-60
2021/06/14 13:02:19;;;;;;;8.98;5.30;;;26.10;54.50;;;;;;5095200;28;20445;-58
2021/06/14 13:05:15;;;;;;;7.80;4.28;;;26.20;53.40;;;;;;5095147;28;20513;-59
2021/06/14 13:08:01;;;;;;;6.40;4.35;;;26.30;53.10;;;;;;5094067;28;20031;-60
2021/06/14 13:10:49;;;;;;;6.30;4.45;;;26.20;53.30;;;;;;5094867;28;20107;-59
2021/06/14 13:13:40;;;;;;;9.80;5.55;;;26.00;53.00;;;;;;5095332;28;20550;-57
2021/06/14 13:16:24;;;;;;;11.05;5.20;;;26.20;53.40;;;;;;5094851;28;20098;-62
2021/06/14 13:19:09;;;;;;;7.40;4.45;;;26.40;53.20;;;;;;5095037;28;20093;-60
2021/06/14 13:22:13;;;;;;;6.90;4.22;;;26.50;53.20;;;;;;5095134;28;20034;-57
2021/06/14 13:25:04;;;;;;;8.20;4.35;;;26.80;52.60;;;;;;5077253;28;20039;-60
2021/06/14 13:27:50;;;;;;;7.60;4.53;;;26.70;53.00;;;;;;5094212;28;20026;-59
2021/06/14 13:30:48;;;;;;;9.38;4.50;;;26.60;53.10;;;;;;5091599;28;20077;-59
2021/06/14 13:33:45;;;;;;;6.43;4.28;;;26.70;53.60;;;;;;5083241;28;20027;-60
2021/06/14 13:36:35;;;;;;;9.38;4.90;;;26.40;52.80;;;;;;5097273;28;20046;-59
2021/06/14 13:39:25;;;;;;;6.00;4.53;;;26.20;53.70;;;;;;5049088;28;20031;-59
2021/06/14 13:42:13;;;;;;;5.78;4.18;;;26.30;52.90;;;;;;5082039;28;20028;-59
2021/06/14 13:44:57;;;;;;;8.48;4.47;;;26.60;53.00;;;;;;5075211;28;20036;-60
2021/06/14 13:47:41;;;;;;;8.32;4.70;;;27.00;52.70;;;;;;5092711;28;20095;-60
2021/06/14 13:50:25;;;;;;;7.85;4.70;;;27.00;53.00;;;;;;5094421;28;20422;-57
2021/06/14 13:53:20;;;;;;;8.07;4.90;;;27.10;53.00;;;;;;5086921;28;20113;-57
2021/06/14 13:56:06;;;;;;;6.35;5.05;;;27.40;52.50;;;;;;5094457;28;20097;-57
2021/06/14 13:58:50;;;;;;;6.93;4.65;;;27.40;52.80;;;;;;5082728;28;20066;-59
2021/06/14 14:01:39;;;;;;;;;;;27.30;53.20;;;;;;5106972;28;20035;-59
2021/06/14 14:04:25;;;;;;;6.13;4.30;;;27.30;52.80;;;;;;5088255;28;19966;-60
2021/06/14 14:07:10;;;;;;;7.38;4.90;;;27.50;52.50;;;;;;5084953;28;20066;-57
2021/06/14 14:09:54;;;;;;;7.70;4.53;;;27.70;52.70;;;;;;5093180;28;20067;-56
2021/06/14 14:12:38;;;;;;;7.35;4.43;;;28.00;51.70;;;;;;5073770;28;20082;-57
2021/06/14 14:15:23;;;;;;;7.45;4.40;;;27.80;51.30;;;;;;5058264;28;20043;-56
2021/06/14 14:18:07;;;;;;;5.90;3.80;;;27.60;52.00;;;;;;5073328;28;20527;-54
2021/06/14 14:20:51;;;;;;;6.60;4.10;;;27.80;51.30;;;;;;5074035;28;20048;-59
2021/06/14 14:23:38;;;;;;;5.00;4.00;;;27.80;51.10;;;;;;5087666;28;20035;-57
2021/06/14 14:26:22;;;;;;;6.63;4.28;;;27.90;50.60;;;;;;5093788;28;20038;-59